sensor_id;sensor_type;location;lat;lon;timestamp;P1;durP1;ratioP1;P2;durP2;ratioP2
4909;SDS011;2470;49.868;8.660;2024-02-16T00:01:03;8.07;;;4.32;;
4909;SDS011;2470;49.868;8.660;2024-02-16T00:03:29;9.75;;;4.53;;
4909;SDS011;2470;49.868;8.660;2024-02-16T00:05:54;11.32;;;4.38;;
4909;SDS011;2470;49.868;8.660;2024-02-16T00:08:20;6.07;;;2.90;;
4909;SDS011;2470;49.868;8.660;2024-02-16T00:10:46;14.07;;;3.42;;
4909;SDS011;2470;49.868;8.660;2024-02-16T00:13:12;7.63;;;4.00;;
4909;SDS011;2470;49.868;8.660;2024-02-16T00:15:38;13.93;;;3.80;;
4909;SDS011;2470;49.868;8.660;2024-02-16T00:18:04;5.55;;;3.10;;
4909;SDS011;2470;49.868;8.660;2024-02-16T00:20:30;11.68;;;3.90;;
4909;SDS011;2470;49.868;8.660;2024-02-16T00:22:56;6.55;;;3.40;;
4909;SDS011;2470;49.868;8.660;2024-02-16T00:25:22;6.25;;;3.15;;
4909;SDS011;2470;49.868;8.660;2024-02-16T00:27:48;13.80;;;3.97;;
4909;SDS011;2470;49.868;8.660;2024-02-16T00:30:14;6.60;;;3.78;;
4909;SDS011;2470;49.868;8.660;2024-02-16T00:32:43;7.10;;;3.00;;
4909;SDS011;2470;49.868;8.660;2024-02-16T00:35:10;5.20;;;2.72;;
4909;SDS011;2470;49.868;8.660;2024-02-16T00:37:36;4.30;;;2.63;;
4909;SDS011;2470;49.868;8.660;2024-02-16T00:40:03;7.80;;;3.17;;
4909;SDS011;2470;49.868;8.660;2024-02-16T00:42:29;4.80;;;2.60;;
4909;SDS011;2470;49.868;8.660;2024-02-16T00:44:56;7.17;;;3.40;;
4909;SDS011;2470;49.868;8.660;2024-02-16T00:47:22;9.77;;;3.63;;
4909;SDS011;2470;49.868;8.660;2024-02-16T00:49:48;4.50;;;2.87;;
4909;SDS011;2470;49.868;8.660;2024-02-16T00:52:14;3.20;;;2.60;;
4909;SDS011;2470;49.868;8.660;2024-02-16T00:54:40;9.63;;;2.80;;
4909;SDS011;2470;49.868;8.660;2024-02-16T00:57:05;7.10;;;2.60;;
4909;SDS011;2470;49.868;8.660;2024-02-16T00:59:31;2.97;;;2.05;;
4909;SDS011;2470;49.868;8.660;2024-02-16T01:01:56;4.70;;;2.53;;
4909;SDS011;2470;49.868;8.660;2024-02-16T01:04:22;5.20;;;2.20;;
4909;SDS011;2470;49.868;8.660;2024-02-16T01:06:48;4.00;;;2.30;;
4909;SDS011;2470;49.868;8.660;2024-02-16T01:09:14;6.60;;;3.07;;
4909;SDS011;2470;49.868;8.660;2024-02-16T01:11:40;7.57;;;3.40;;
4909;SDS011;2470;49.868;8.660;2024-02-16T01:14:06;5.72;;;2.53;;
4909;SDS011;2470;49.868;8.660;2024-02-16T01:16:32;4.07;;;2.40;;
4909;SDS011;2470;49.868;8.660;2024-02-16T01:18:57;6.20;;;1.77;;
4909;SDS011;2470;49.868;8.660;2024-02-16T01:21:23;5.23;;;2.47;;
4909;SDS011;2470;49.868;8.660;2024-02-16T01:23:49;7.77;;;2.60;;
4909;SDS011;2470;49.868;8.660;2024-02-16T01:26:14;5.60;;;2.10;;
4909;SDS011;2470;49.868;8.660;2024-02-16T01:28:40;6.13;;;3.00;;
4909;SDS011;2470;49.868;8.660;2024-02-16T01:31:05;5.83;;;2.20;;
4909;SDS011;2470;49.868;8.660;2024-02-16T01:33:31;8.30;;;2.17;;
4909;SDS011;2470;49.868;8.660;2024-02-16T01:35:59;5.77;;;3.03;;
4909;SDS011;2470;49.868;8.660;2024-02-16T01:38:25;5.00;;;2.20;;
4909;SDS011;2470;49.868;8.660;2024-02-16T01:40:50;5.80;;;2.43;;
4909;SDS011;2470;49.868;8.660;2024-02-16T01:43:22;14.03;;;2.83;;
4909;SDS011;2470;49.868;8.660;2024-02-16T01:45:47;4.30;;;2.30;;
4909;SDS011;2470;49.868;8.660;2024-02-16T01:48:16;4.63;;;2.23;;
4909;SDS011;2470;49.868;8.660;2024-02-16T01:50:42;5.60;;;2.20;;
4909;SDS011;2470;49.868;8.660;2024-02-16T01:53:09;4.83;;;2.40;;
4909;SDS011;2470;49.868;8.660;2024-02-16T01:55:36;7.10;;;2.40;;
4909;SDS011;2470;49.868;8.660;2024-02-16T01:58:02;2.57;;;2.33;;
4909;SDS011;2470;49.868;8.660;2024-02-16T02:00:29;4.73;;;2.57;;
4909;SDS011;2470;49.868;8.660;2024-02-16T02:02:54;15.60;;;2.73;;
4909;SDS011;2470;49.868;8.660;2024-02-16T02:05:22;8.13;;;2.40;;
4909;SDS011;2470;49.868;8.660;2024-02-16T02:07:48;5.07;;;3.10;;
4909;SDS011;2470;49.868;8.660;2024-02-16T02:10:14;8.33;;;2.40;;
4909;SDS011;2470;49.868;8.660;2024-02-16T02:12:39;5.00;;;2.33;;
4909;SDS011;2470;49.868;8.660;2024-02-16T02:15:07;6.70;;;2.80;;
4909;SDS011;2470;49.868;8.660;2024-02-16T02:17:33;11.10;;;2.57;;
4909;SDS011;2470;49.868;8.660;2024-02-16T02:19:59;6.03;;;2.60;;
4909;SDS011;2470;49.868;8.660;2024-02-16T02:22:25;5.53;;;2.57;;
4909;SDS011;2470;49.868;8.660;2024-02-16T02:24:52;4.60;;;2.30;;
4909;SDS011;2470;49.868;8.660;2024-02-16T02:27:20;5.13;;;2.50;;
4909;SDS011;2470;49.868;8.660;2024-02-16T02:29:46;3.50;;;2.30;;
4909;SDS011;2470;49.868;8.660;2024-02-16T02:32:12;7.37;;;2.33;;
4909;SDS011;2470;49.868;8.660;2024-02-16T02:34:38;11.63;;;2.60;;
4909;SDS011;2470;49.868;8.660;2024-02-16T02:37:04;3.93;;;2.33;;
4909;SDS011;2470;49.868;8.660;2024-02-16T02:39:30;6.97;;;2.60;;
4909;SDS011;2470;49.868;8.660;2024-02-16T02:41:56;5.10;;;3.03;;
4909;SDS011;2470;49.868;8.660;2024-02-16T02:44:22;3.60;;;2.30;;
4909;SDS011;2470;49.868;8.660;2024-02-16T02:46:48;2.97;;;2.40;;
4909;SDS011;2470;49.868;8.660;2024-02-16T02:49:14;3.33;;;2.60;;
4909;SDS011;2470;49.868;8.660;2024-02-16T02:51:39;9.80;;;2.60;;
4909;SDS011;2470;49.868;8.660;2024-02-16T02:54:05;6.80;;;2.30;;
4909;SDS011;2470;49.868;8.660;2024-02-16T02:56:31;4.37;;;2.40;;
4909;SDS011;2470;49.868;8.660;2024-02-16T02:58:56;3.23;;;2.20;;
4909;SDS011;2470;49.868;8.660;2024-02-16T03:01:22;2.55;;;2.22;;
4909;SDS011;2470;49.868;8.660;2024-02-16T03:03:48;3.50;;;2.00;;
4909;SDS011;2470;49.868;8.660;2024-02-16T03:06:17;5.63;;;2.47;;
4909;SDS011;2470;49.868;8.660;2024-02-16T03:08:43;7.63;;;2.83;;
4909;SDS011;2470;49.868;8.660;2024-02-16T03:11:08;4.73;;;2.90;;
4909;SDS011;2470;49.868;8.660;2024-02-16T03:13:34;5.70;;;2.83;;
4909;SDS011;2470;49.868;8.660;2024-02-16T03:15:59;4.03;;;2.78;;
4909;SDS011;2470;49.868;8.660;2024-02-16T03:18:28;2.63;;;2.30;;
4909;SDS011;2470;49.868;8.660;2024-02-16T03:20:55;4.37;;;2.60;;
4909;SDS011;2470;49.868;8.660;2024-02-16T03:23:20;4.83;;;2.70;;
4909;SDS011;2470;49.868;8.660;2024-02-16T03:25:46;2.23;;;1.97;;
4909;SDS011;2470;49.868;8.660;2024-02-16T03:28:11;3.60;;;2.30;;
4909;SDS011;2470;49.868;8.660;2024-02-16T03:30:38;8.40;;;2.70;;
4909;SDS011;2470;49.868;8.660;2024-02-16T03:33:04;6.83;;;2.87;;
4909;SDS011;2470;49.868;8.660;2024-02-16T03:35:29;3.73;;;2.83;;
4909;SDS011;2470;49.868;8.660;2024-02-16T03:37:55;4.60;;;2.63;;
4909;SDS011;2470;49.868;8.660;2024-02-16T03:40:22;6.00;;;2.77;;
4909;SDS011;2470;49.868;8.660;2024-02-16T03:42:49;6.07;;;2.83;;
4909;SDS011;2470;49.868;8.660;2024-02-16T03:45:15;5.13;;;2.60;;
4909;SDS011;2470;49.868;8.660;2024-02-16T03:47:41;4.70;;;2.40;;
4909;SDS011;2470;49.868;8.660;2024-02-16T03:50:07;4.23;;;2.30;;
4909;SDS011;2470;49.868;8.660;2024-02-16T03:52:32;8.18;;;4.30;;
4909;SDS011;2470;49.868;8.660;2024-02-16T03:54:58;3.57;;;2.87;;
4909;SDS011;2470;49.868;8.660;2024-02-16T03:57:24;4.72;;;2.30;;
4909;SDS011;2470;49.868;8.660;2024-02-16T03:59:49;4.50;;;2.90;;
4909;SDS011;2470;49.868;8.660;2024-02-16T04:02:15;4.53;;;3.03;;
4909;SDS011;2470;49.868;8.660;2024-02-16T04:04:41;12.80;;;3.60;;
4909;SDS011;2470;49.868;8.660;2024-02-16T04:07:06;5.30;;;3.08;;
4909;SDS011;2470;49.868;8.660;2024-02-16T04:09:33;7.60;;;3.20;;
4909;SDS011;2470;49.868;8.660;2024-02-16T04:11:59;4.90;;;2.75;;
4909;SDS011;2470;49.868;8.660;2024-02-16T04:14:25;2.83;;;2.53;;
4909;SDS011;2470;49.868;8.660;2024-02-16T04:16:50;5.93;;;3.27;;
4909;SDS011;2470;49.868;8.660;2024-02-16T04:19:16;4.03;;;2.53;;
4909;SDS011;2470;49.868;8.660;2024-02-16T04:21:42;8.30;;;2.57;;
4909;SDS011;2470;49.868;8.660;2024-02-16T04:24:07;4.77;;;2.60;;
4909;SDS011;2470;49.868;8.660;2024-02-16T04:26:33;10.30;;;2.70;;
4909;SDS011;2470;49.868;8.660;2024-02-16T04:28:58;4.93;;;2.75;;
4909;SDS011;2470;49.868;8.660;2024-02-16T04:31:24;6.38;;;3.08;;
4909;SDS011;2470;49.868;8.660;2024-02-16T04:33:49;6.80;;;2.55;;
4909;SDS011;2470;49.868;8.660;2024-02-16T04:36:15;5.77;;;2.70;;
4909;SDS011;2470;49.868;8.660;2024-02-16T04:38:41;4.53;;;2.17;;
4909;SDS011;2470;49.868;8.660;2024-02-16T04:41:07;3.30;;;2.67;;
4909;SDS011;2470;49.868;8.660;2024-02-16T04:43:33;3.10;;;2.33;;
4909;SDS011;2470;49.868;8.660;2024-02-16T04:45:58;3.20;;;2.57;;
4909;SDS011;2470;49.868;8.660;2024-02-16T04:48:24;5.32;;;2.58;;
4909;SDS011;2470;49.868;8.660;2024-02-16T04:50:50;4.63;;;2.13;;
4909;SDS011;2470;49.868;8.660;2024-02-16T04:53:16;4.37;;;2.90;;
4909;SDS011;2470;49.868;8.660;2024-02-16T04:55:42;6.63;;;3.13;;
4909;SDS011;2470;49.868;8.660;2024-02-16T04:58:07;3.73;;;2.33;;
4909;SDS011;2470;49.868;8.660;2024-02-16T05:00:35;4.55;;;2.83;;
4909;SDS011;2470;49.868;8.660;2024-02-16T05:03:01;6.17;;;3.40;;
4909;SDS011;2470;49.868;8.660;2024-02-16T05:05:27;4.00;;;2.67;;
4909;SDS011;2470;49.868;8.660;2024-02-16T05:07:53;6.50;;;3.33;;
4909;SDS011;2470;49.868;8.660;2024-02-16T05:10:19;3.10;;;2.10;;
4909;SDS011;2470;49.868;8.660;2024-02-16T05:12:44;6.83;;;2.50;;
4909;SDS011;2470;49.868;8.660;2024-02-16T05:15:10;8.80;;;2.97;;
4909;SDS011;2470;49.868;8.660;2024-02-16T05:17:38;3.58;;;2.75;;
4909;SDS011;2470;49.868;8.660;2024-02-16T05:20:07;5.90;;;2.88;;
4909;SDS011;2470;49.868;8.660;2024-02-16T05:22:40;4.43;;;2.55;;
4909;SDS011;2470;49.868;8.660;2024-02-16T05:25:08;17.33;;;2.97;;
4909;SDS011;2470;49.868;8.660;2024-02-16T05:27:34;5.37;;;3.20;;
4909;SDS011;2470;49.868;8.660;2024-02-16T05:29:59;5.43;;;3.63;;
4909;SDS011;2470;49.868;8.660;2024-02-16T05:32:25;5.10;;;2.97;;
4909;SDS011;2470;49.868;8.660;2024-02-16T05:34:51;6.57;;;2.72;;
4909;SDS011;2470;49.868;8.660;2024-02-16T05:37:17;4.13;;;2.92;;
4909;SDS011;2470;49.868;8.660;2024-02-16T05:39:45;9.05;;;3.03;;
4909;SDS011;2470;49.868;8.660;2024-02-16T05:42:32;5.53;;;3.35;;
4909;SDS011;2470;49.868;8.660;2024-02-16T05:44:58;5.93;;;3.05;;
4909;SDS011;2470;49.868;8.660;2024-02-16T05:47:23;5.22;;;2.80;;
4909;SDS011;2470;49.868;8.660;2024-02-16T05:49:49;12.33;;;3.47;;
4909;SDS011;2470;49.868;8.660;2024-02-16T05:52:15;9.23;;;3.60;;
4909;SDS011;2470;49.868;8.660;2024-02-16T05:54:44;7.05;;;3.25;;
4909;SDS011;2470;49.868;8.660;2024-02-16T05:57:10;6.97;;;3.00;;
4909;SDS011;2470;49.868;8.660;2024-02-16T05:59:37;4.68;;;2.60;;
4909;SDS011;2470;49.868;8.660;2024-02-16T06:02:03;7.57;;;5.15;;
4909;SDS011;2470;49.868;8.660;2024-02-16T06:04:30;6.35;;;2.65;;
4909;SDS011;2470;49.868;8.660;2024-02-16T06:06:55;5.30;;;3.05;;
4909;SDS011;2470;49.868;8.660;2024-02-16T06:09:21;7.90;;;3.90;;
4909;SDS011;2470;49.868;8.660;2024-02-16T06:11:46;7.00;;;3.40;;
4909;SDS011;2470;49.868;8.660;2024-02-16T06:14:13;11.20;;;3.27;;
4909;SDS011;2470;49.868;8.660;2024-02-16T06:16:39;4.28;;;3.10;;
4909;SDS011;2470;49.868;8.660;2024-02-16T06:19:07;7.03;;;3.20;;
4909;SDS011;2470;49.868;8.660;2024-02-16T06:21:33;4.03;;;2.80;;
4909;SDS011;2470;49.868;8.660;2024-02-16T06:23:59;6.78;;;3.28;;
4909;SDS011;2470;49.868;8.660;2024-02-16T06:26:24;11.13;;;3.20;;
4909;SDS011;2470;49.868;8.660;2024-02-16T06:28:50;3.80;;;2.97;;
4909;SDS011;2470;49.868;8.660;2024-02-16T06:31:15;6.63;;;3.50;;
4909;SDS011;2470;49.868;8.660;2024-02-16T06:33:41;6.80;;;3.03;;
4909;SDS011;2470;49.868;8.660;2024-02-16T06:36:06;6.40;;;3.27;;
4909;SDS011;2470;49.868;8.660;2024-02-16T06:38:32;15.77;;;2.80;;
4909;SDS011;2470;49.868;8.660;2024-02-16T06:40:58;6.90;;;3.40;;
4909;SDS011;2470;49.868;8.660;2024-02-16T06:43:23;8.70;;;3.20;;
4909;SDS011;2470;49.868;8.660;2024-02-16T06:45:49;11.50;;;3.37;;
4909;SDS011;2470;49.868;8.660;2024-02-16T06:48:14;6.77;;;3.50;;
4909;SDS011;2470;49.868;8.660;2024-02-16T06:50:40;8.40;;;3.93;;
4909;SDS011;2470;49.868;8.660;2024-02-16T06:53:05;9.50;;;3.33;;
4909;SDS011;2470;49.868;8.660;2024-02-16T06:55:31;9.83;;;3.40;;
4909;SDS011;2470;49.868;8.660;2024-02-16T06:57:56;3.83;;;2.47;;
4909;SDS011;2470;49.868;8.660;2024-02-16T07:00:22;4.20;;;3.17;;
4909;SDS011;2470;49.868;8.660;2024-02-16T07:02:47;7.37;;;3.13;;
4909;SDS011;2470;49.868;8.660;2024-02-16T07:05:13;4.20;;;3.00;;
4909;SDS011;2470;49.868;8.660;2024-02-16T07:07:40;8.37;;;3.63;;
4909;SDS011;2470;49.868;8.660;2024-02-16T07:10:06;7.43;;;3.17;;
4909;SDS011;2470;49.868;8.660;2024-02-16T07:12:33;5.03;;;2.85;;
4909;SDS011;2470;49.868;8.660;2024-02-16T07:14:58;4.87;;;2.97;;
4909;SDS011;2470;49.868;8.660;2024-02-16T07:17:24;14.63;;;4.27;;
4909;SDS011;2470;49.868;8.660;2024-02-16T07:19:49;19.20;;;5.10;;
4909;SDS011;2470;49.868;8.660;2024-02-16T07:22:15;19.30;;;4.17;;
4909;SDS011;2470;49.868;8.660;2024-02-16T07:24:41;8.03;;;3.43;;
4909;SDS011;2470;49.868;8.660;2024-02-16T07:27:06;3.60;;;2.80;;
4909;SDS011;2470;49.868;8.660;2024-02-16T07:29:32;6.47;;;3.60;;
4909;SDS011;2470;49.868;8.660;2024-02-16T07:31:59;6.10;;;2.90;;
4909;SDS011;2470;49.868;8.660;2024-02-16T07:34:25;6.03;;;3.43;;
4909;SDS011;2470;49.868;8.660;2024-02-16T07:36:50;12.13;;;3.50;;
4909;SDS011;2470;49.868;8.660;2024-02-16T07:39:20;7.10;;;3.43;;
4909;SDS011;2470;49.868;8.660;2024-02-16T07:41:48;11.33;;;4.47;;
4909;SDS011;2470;49.868;8.660;2024-02-16T07:44:14;5.90;;;3.70;;
4909;SDS011;2470;49.868;8.660;2024-02-16T07:46:40;4.37;;;3.10;;
4909;SDS011;2470;49.868;8.660;2024-02-16T07:49:06;6.97;;;2.93;;
4909;SDS011;2470;49.868;8.660;2024-02-16T07:51:32;4.77;;;2.93;;
4909;SDS011;2470;49.868;8.660;2024-02-16T07:53:57;11.60;;;3.42;;
4909;SDS011;2470;49.868;8.660;2024-02-16T07:56:23;10.17;;;3.70;;
4909;SDS011;2470;49.868;8.660;2024-02-16T07:58:48;7.70;;;3.37;;
4909;SDS011;2470;49.868;8.660;2024-02-16T08:01:14;8.40;;;4.30;;
4909;SDS011;2470;49.868;8.660;2024-02-16T08:03:42;11.05;;;3.63;;
4909;SDS011;2470;49.868;8.660;2024-02-16T08:06:08;4.80;;;3.38;;
4909;SDS011;2470;49.868;8.660;2024-02-16T08:08:33;5.00;;;3.17;;
4909;SDS011;2470;49.868;8.660;2024-02-16T08:10:59;6.68;;;3.30;;
4909;SDS011;2470;49.868;8.660;2024-02-16T08:13:24;4.75;;;2.97;;
4909;SDS011;2470;49.868;8.660;2024-02-16T08:15:50;8.15;;;3.90;;
4909;SDS011;2470;49.868;8.660;2024-02-16T08:18:16;8.27;;;3.35;;
4909;SDS011;2470;49.868;8.660;2024-02-16T08:20:42;4.95;;;3.30;;
4909;SDS011;2470;49.868;8.660;2024-02-16T08:23:08;4.00;;;3.33;;
4909;SDS011;2470;49.868;8.660;2024-02-16T08:25:34;7.53;;;3.92;;
4909;SDS011;2470;49.868;8.660;2024-02-16T08:27:59;16.77;;;4.35;;
4909;SDS011;2470;49.868;8.660;2024-02-16T08:30:25;5.40;;;3.33;;
4909;SDS011;2470;49.868;8.660;2024-02-16T08:32:50;6.78;;;3.53;;
4909;SDS011;2470;49.868;8.660;2024-02-16T08:35:16;14.88;;;3.08;;
4909;SDS011;2470;49.868;8.660;2024-02-16T08:37:43;4.85;;;2.95;;
4909;SDS011;2470;49.868;8.660;2024-02-16T08:40:09;8.50;;;4.30;;
4909;SDS011;2470;49.868;8.660;2024-02-16T08:42:39;4.75;;;3.55;;
4909;SDS011;2470;49.868;8.660;2024-02-16T08:45:07;6.82;;;3.78;;
4909;SDS011;2470;49.868;8.660;2024-02-16T08:47:33;7.50;;;3.80;;
4909;SDS011;2470;49.868;8.660;2024-02-16T08:49:59;6.47;;;3.17;;
4909;SDS011;2470;49.868;8.660;2024-02-16T08:52:24;10.13;;;4.20;;
4909;SDS011;2470;49.868;8.660;2024-02-16T08:54:50;5.20;;;3.22;;
4909;SDS011;2470;49.868;8.660;2024-02-16T08:57:16;9.73;;;3.65;;
4909;SDS011;2470;49.868;8.660;2024-02-16T08:59:42;7.35;;;3.70;;
4909;SDS011;2470;49.868;8.660;2024-02-16T09:02:09;6.20;;;2.92;;
4909;SDS011;2470;49.868;8.660;2024-02-16T09:04:35;7.20;;;2.92;;
4909;SDS011;2470;49.868;8.660;2024-02-16T09:07:01;4.18;;;3.13;;
4909;SDS011;2470;49.868;8.660;2024-02-16T09:09:27;17.08;;;5.03;;
4909;SDS011;2470;49.868;8.660;2024-02-16T09:11:53;7.55;;;3.65;;
4909;SDS011;2470;49.868;8.660;2024-02-16T09:14:19;6.78;;;3.35;;
4909;SDS011;2470;49.868;8.660;2024-02-16T09:16:44;5.78;;;3.95;;
4909;SDS011;2470;49.868;8.660;2024-02-16T09:19:10;5.05;;;3.38;;
4909;SDS011;2470;49.868;8.660;2024-02-16T09:21:35;6.13;;;3.58;;
4909;SDS011;2470;49.868;8.660;2024-02-16T09:24:01;7.18;;;4.20;;
4909;SDS011;2470;49.868;8.660;2024-02-16T09:26:28;4.20;;;3.28;;
4909;SDS011;2470;49.868;8.660;2024-02-16T09:28:56;7.70;;;3.80;;
4909;SDS011;2470;49.868;8.660;2024-02-16T09:31:22;7.30;;;3.70;;
4909;SDS011;2470;49.868;8.660;2024-02-16T09:33:48;5.00;;;3.13;;
4909;SDS011;2470;49.868;8.660;2024-02-16T09:36:16;8.60;;;3.22;;
4909;SDS011;2470;49.868;8.660;2024-02-16T09:38:45;8.25;;;3.72;;
4909;SDS011;2470;49.868;8.660;2024-02-16T09:41:12;4.75;;;3.40;;
4909;SDS011;2470;49.868;8.660;2024-02-16T09:43:38;7.95;;;3.25;;
4909;SDS011;2470;49.868;8.660;2024-02-16T09:46:04;4.90;;;3.08;;
4909;SDS011;2470;49.868;8.660;2024-02-16T09:48:30;5.93;;;3.38;;
4909;SDS011;2470;49.868;8.660;2024-02-16T09:50:57;5.72;;;2.85;;
4909;SDS011;2470;49.868;8.660;2024-02-16T09:53:28;6.57;;;2.85;;
4909;SDS011;2470;49.868;8.660;2024-02-16T09:55:53;14.25;;;3.55;;
4909;SDS011;2470;49.868;8.660;2024-02-16T09:58:19;4.55;;;3.03;;
4909;SDS011;2470;49.868;8.660;2024-02-16T10:00:52;4.10;;;3.17;;
4909;SDS011;2470;49.868;8.660;2024-02-16T10:03:26;7.75;;;3.60;;
4909;SDS011;2470;49.868;8.660;2024-02-16T10:06:06;5.50;;;3.45;;
4909;SDS011;2470;49.868;8.660;2024-02-16T10:08:33;10.75;;;2.95;;
4909;SDS011;2470;49.868;8.660;2024-02-16T10:11:03;11.98;;;3.28;;
4909;SDS011;2470;49.868;8.660;2024-02-16T10:13:29;8.30;;;3.85;;
4909;SDS011;2470;49.868;8.660;2024-02-16T10:16:09;3.97;;;2.60;;
4909;SDS011;2470;49.868;8.660;2024-02-16T10:18:36;7.18;;;3.58;;
4909;SDS011;2470;49.868;8.660;2024-02-16T10:21:02;6.07;;;3.60;;
4909;SDS011;2470;49.868;8.660;2024-02-16T10:23:29;8.45;;;3.38;;
4909;SDS011;2470;49.868;8.660;2024-02-16T10:25:54;5.38;;;3.83;;
4909;SDS011;2470;49.868;8.660;2024-02-16T10:28:20;6.93;;;3.35;;
4909;SDS011;2470;49.868;8.660;2024-02-16T10:30:52;7.63;;;3.25;;
4909;SDS011;2470;49.868;8.660;2024-02-16T10:33:26;9.38;;;3.65;;
4909;SDS011;2470;49.868;8.660;2024-02-16T10:35:53;3.53;;;2.67;;
4909;SDS011;2470;49.868;8.660;2024-02-16T10:38:23;6.03;;;3.53;;
4909;SDS011;2470;49.868;8.660;2024-02-16T10:40:49;6.07;;;3.17;;
4909;SDS011;2470;49.868;8.660;2024-02-16T10:43:16;5.57;;;3.78;;
4909;SDS011;2470;49.868;8.660;2024-02-16T10:45:43;12.63;;;3.42;;
4909;SDS011;2470;49.868;8.660;2024-02-16T10:48:12;9.45;;;3.83;;
4909;SDS011;2470;49.868;8.660;2024-02-16T10:50:37;9.38;;;3.38;;
4909;SDS011;2470;49.868;8.660;2024-02-16T10:53:04;5.10;;;3.33;;
4909;SDS011;2470;49.868;8.660;2024-02-16T10:55:40;5.40;;;3.17;;
4909;SDS011;2470;49.868;8.660;2024-02-16T10:58:09;6.40;;;3.22;;
4909;SDS011;2470;49.868;8.660;2024-02-16T11:00:37;4.13;;;3.00;;
4909;SDS011;2470;49.868;8.660;2024-02-16T11:03:17;5.72;;;3.30;;
4909;SDS011;2470;49.868;8.660;2024-02-16T11:05:48;4.78;;;2.88;;
4909;SDS011;2470;49.868;8.660;2024-02-16T11:08:17;6.85;;;3.17;;
4909;SDS011;2470;49.868;8.660;2024-02-16T11:10:54;4.55;;;3.28;;
4909;SDS011;2470;49.868;8.660;2024-02-16T11:13:27;3.85;;;2.90;;
4909;SDS011;2470;49.868;8.660;2024-02-16T11:16:03;11.02;;;4.45;;
4909;SDS011;2470;49.868;8.660;2024-02-16T11:18:32;18.95;;;3.70;;
4909;SDS011;2470;49.868;8.660;2024-02-16T11:21:02;7.75;;;4.00;;
4909;SDS011;2470;49.868;8.660;2024-02-16T11:23:31;4.57;;;3.30;;
4909;SDS011;2470;49.868;8.660;2024-02-16T11:26:03;6.55;;;3.15;;
4909;SDS011;2470;49.868;8.660;2024-02-16T11:28:33;6.38;;;2.95;;
4909;SDS011;2470;49.868;8.660;2024-02-16T11:31:00;7.45;;;3.47;;
4909;SDS011;2470;49.868;8.660;2024-02-16T11:33:27;9.32;;;3.65;;
4909;SDS011;2470;49.868;8.660;2024-02-16T11:35:56;11.63;;;3.85;;
4909;SDS011;2470;49.868;8.660;2024-02-16T11:38:26;4.25;;;2.92;;
4909;SDS011;2470;49.868;8.660;2024-02-16T11:41:03;4.43;;;2.88;;
4909;SDS011;2470;49.868;8.660;2024-02-16T11:43:30;5.78;;;3.28;;
4909;SDS011;2470;49.868;8.660;2024-02-16T11:45:57;6.47;;;2.90;;
4909;SDS011;2470;49.868;8.660;2024-02-16T11:48:23;8.77;;;3.17;;
4909;SDS011;2470;49.868;8.660;2024-02-16T11:51:00;5.30;;;2.80;;
4909;SDS011;2470;49.868;8.660;2024-02-16T11:53:27;5.07;;;2.90;;
4909;SDS011;2470;49.868;8.660;2024-02-16T11:55:53;4.72;;;3.05;;
4909;SDS011;2470;49.868;8.660;2024-02-16T11:58:19;6.25;;;3.42;;
4909;SDS011;2470;49.868;8.660;2024-02-16T12:00:48;5.53;;;3.42;;
4909;SDS011;2470;49.868;8.660;2024-02-16T12:03:19;4.15;;;2.85;;
4909;SDS011;2470;49.868;8.660;2024-02-16T12:05:51;10.52;;;3.08;;
4909;SDS011;2470;49.868;8.660;2024-02-16T12:08:18;6.82;;;2.97;;
4909;SDS011;2470;49.868;8.660;2024-02-16T12:10:44;5.03;;;3.10;;
4909;SDS011;2470;49.868;8.660;2024-02-16T12:13:12;5.70;;;3.15;;
4909;SDS011;2470;49.868;8.660;2024-02-16T12:15:38;15.25;;;4.53;;
4909;SDS011;2470;49.868;8.660;2024-02-16T12:18:03;7.85;;;3.33;;
4909;SDS011;2470;49.868;8.660;2024-02-16T12:20:29;7.22;;;3.25;;
4909;SDS011;2470;49.868;8.660;2024-02-16T12:22:56;3.83;;;2.70;;
4909;SDS011;2470;49.868;8.660;2024-02-16T12:25:24;4.68;;;2.85;;
4909;SDS011;2470;49.868;8.660;2024-02-16T12:27:50;9.68;;;2.13;;
4909;SDS011;2470;49.868;8.660;2024-02-16T12:30:15;7.85;;;2.88;;
4909;SDS011;2470;49.868;8.660;2024-02-16T12:32:41;4.40;;;2.55;;
4909;SDS011;2470;49.868;8.660;2024-02-16T12:35:07;4.88;;;2.40;;
4909;SDS011;2470;49.868;8.660;2024-02-16T12:37:33;4.60;;;2.47;;
4909;SDS011;2470;49.868;8.660;2024-02-16T12:40:00;2.95;;;1.85;;
4909;SDS011;2470;49.868;8.660;2024-02-16T12:42:26;7.03;;;2.78;;
4909;SDS011;2470;49.868;8.660;2024-02-16T12:44:52;4.22;;;2.33;;
4909;SDS011;2470;49.868;8.660;2024-02-16T12:47:17;5.32;;;2.53;;
4909;SDS011;2470;49.868;8.660;2024-02-16T12:49:43;6.85;;;2.10;;
4909;SDS011;2470;49.868;8.660;2024-02-16T12:52:08;5.95;;;2.15;;
4909;SDS011;2470;49.868;8.660;2024-02-16T12:54:34;8.18;;;1.80;;
4909;SDS011;2470;49.868;8.660;2024-02-16T12:57:00;5.53;;;2.63;;
4909;SDS011;2470;49.868;8.660;2024-02-16T12:59:25;3.22;;;1.63;;
4909;SDS011;2470;49.868;8.660;2024-02-16T13:01:51;3.05;;;1.88;;
4909;SDS011;2470;49.868;8.660;2024-02-16T13:04:17;6.93;;;2.20;;
4909;SDS011;2470;49.868;8.660;2024-02-16T13:06:46;4.10;;;1.83;;
4909;SDS011;2470;49.868;8.660;2024-02-16T13:09:12;5.32;;;2.10;;
4909;SDS011;2470;49.868;8.660;2024-02-16T13:11:38;7.43;;;1.83;;
4909;SDS011;2470;49.868;8.660;2024-02-16T13:14:05;11.25;;;3.00;;
4909;SDS011;2470;49.868;8.660;2024-02-16T13:16:31;4.10;;;2.05;;
4909;SDS011;2470;49.868;8.660;2024-02-16T13:18:57;2.83;;;1.80;;
4909;SDS011;2470;49.868;8.660;2024-02-16T13:21:22;5.28;;;2.00;;
4909;SDS011;2470;49.868;8.660;2024-02-16T13:23:48;3.60;;;2.05;;
4909;SDS011;2470;49.868;8.660;2024-02-16T13:26:13;2.72;;;2.05;;
4909;SDS011;2470;49.868;8.660;2024-02-16T13:28:39;19.00;;;2.58;;
4909;SDS011;2470;49.868;8.660;2024-02-16T13:31:04;4.72;;;2.25;;
4909;SDS011;2470;49.868;8.660;2024-02-16T13:33:30;4.88;;;2.50;;
4909;SDS011;2470;49.868;8.660;2024-02-16T13:35:55;6.63;;;2.40;;
4909;SDS011;2470;49.868;8.660;2024-02-16T13:38:21;5.72;;;2.00;;
4909;SDS011;2470;49.868;8.660;2024-02-16T13:40:46;3.85;;;2.47;;
4909;SDS011;2470;49.868;8.660;2024-02-16T13:43:13;6.05;;;1.77;;
4909;SDS011;2470;49.868;8.660;2024-02-16T13:45:47;3.50;;;2.05;;
4909;SDS011;2470;49.868;8.660;2024-02-16T13:48:16;9.02;;;2.70;;
4909;SDS011;2470;49.868;8.660;2024-02-16T13:50:48;6.45;;;2.60;;
4909;SDS011;2470;49.868;8.660;2024-02-16T13:53:15;4.90;;;2.33;;
4909;SDS011;2470;49.868;8.660;2024-02-16T13:55:41;6.63;;;2.70;;
4909;SDS011;2470;49.868;8.660;2024-02-16T13:58:09;5.13;;;2.10;;
4909;SDS011;2470;49.868;8.660;2024-02-16T14:00:37;4.10;;;2.45;;
4909;SDS011;2470;49.868;8.660;2024-02-16T14:03:04;3.67;;;2.05;;
4909;SDS011;2470;49.868;8.660;2024-02-16T14:05:30;2.50;;;1.80;;
4909;SDS011;2470;49.868;8.660;2024-02-16T14:07:56;5.18;;;2.58;;
4909;SDS011;2470;49.868;8.660;2024-02-16T14:10:22;6.55;;;2.88;;
4909;SDS011;2470;49.868;8.660;2024-02-16T14:12:47;3.97;;;1.98;;
4909;SDS011;2470;49.868;8.660;2024-02-16T14:15:13;4.35;;;2.40;;
4909;SDS011;2470;49.868;8.660;2024-02-16T14:17:43;5.47;;;1.80;;
4909;SDS011;2470;49.868;8.660;2024-02-16T14:20:09;3.08;;;2.13;;
4909;SDS011;2470;49.868;8.660;2024-02-16T14:22:36;2.90;;;2.10;;
4909;SDS011;2470;49.868;8.660;2024-02-16T14:25:01;4.35;;;1.90;;
4909;SDS011;2470;49.868;8.660;2024-02-16T14:27:28;5.72;;;2.17;;
4909;SDS011;2470;49.868;8.660;2024-02-16T14:29:54;11.80;;;2.58;;
4909;SDS011;2470;49.868;8.660;2024-02-16T14:32:20;4.38;;;2.42;;
4909;SDS011;2470;49.868;8.660;2024-02-16T14:34:46;5.72;;;2.30;;
4909;SDS011;2470;49.868;8.660;2024-02-16T14:37:11;5.43;;;2.33;;
4909;SDS011;2470;49.868;8.660;2024-02-16T14:39:37;4.35;;;2.45;;
4909;SDS011;2470;49.868;8.660;2024-02-16T14:42:02;14.23;;;2.10;;
4909;SDS011;2470;49.868;8.660;2024-02-16T14:44:28;8.93;;;2.47;;
4909;SDS011;2470;49.868;8.660;2024-02-16T14:46:53;3.90;;;2.28;;
4909;SDS011;2470;49.868;8.660;2024-02-16T14:49:19;5.45;;;2.80;;
4909;SDS011;2470;49.868;8.660;2024-02-16T14:51:49;5.35;;;2.63;;
4909;SDS011;2470;49.868;8.660;2024-02-16T14:54:15;5.75;;;2.38;;
4909;SDS011;2470;49.868;8.660;2024-02-16T14:56:41;4.88;;;1.95;;
4909;SDS011;2470;49.868;8.660;2024-02-16T14:59:06;7.30;;;2.75;;
4909;SDS011;2470;49.868;8.660;2024-02-16T15:01:35;4.22;;;1.92;;
4909;SDS011;2470;49.868;8.660;2024-02-16T15:04:02;4.10;;;2.03;;
4909;SDS011;2470;49.868;8.660;2024-02-16T15:06:28;7.97;;;2.05;;
4909;SDS011;2470;49.868;8.660;2024-02-16T15:08:54;4.70;;;2.33;;
4909;SDS011;2470;49.868;8.660;2024-02-16T15:11:19;3.90;;;1.92;;